Time;durP1;ratioP1;P1;durP2;ratioP2;P2;SDS_P1;SDS_P2;PMS_P1;PMS_P2;Temp;Humidity;BMP_temperature;BMP_pressure;BME280_temperature;BME280_humidity;BME280_pressure;Samples;Min_cycle;Max_cycle;Signal;HPM_P1;HPM_P2
2022/10/16 00:01:11;;;;;;;1.77;0.60;;;16.70;96.50;;;;;;5070794;28;20063;-75
2022/10/16 00:03:42;;;;;;;5.70;0.98;;;16.70;96.50;;;;;;5071727;28;20393;-75
2022/10/16 00:06:09;;;;;;;2.78;0.57;;;16.60;96.40;;;;;;5070625;28;20031;-75
2022/10/16 00:08:36;;;;;;;6.38;0.73;;;16.60;96.50;;;;;;5071625;28;20025;-74
2022/10/16 00:11:04;;;;;;;1.42;0.60;;;16.60;96.50;;;;;;5071937;28;20288;-77
2022/10/16 00:13:32;;;;;;;1.80;0.85;;;16.60;96.50;;;;;;5071685;28;20525;-75
2022/10/16 00:15:59;;;;;;;4.35;0.63;;;16.60;96.50;;;;;;5071513;28;20032;-75
2022/10/16 00:18:25;;;;;;;5.67;0.87;;;16.60;96.50;;;;;;5071513;28;20041;-75
2022/10/16 00:20:51;;;;;;;1.65;0.70;;;16.60;96.40;;;;;;5071403;28;20123;-75
2022/10/16 00:23:18;;;;;;;4.75;0.93;;;16.60;96.40;;;;;;5071960;28;20128;-75
2022/10/16 00:25:43;;;;;;;4.22;1.48;;;16.50;96.30;;;;;;5071493;28;20094;-75
2022/10/16 00:28:09;;;;;;;6.13;0.70;;;16.60;96.40;;;;;;5071474;28;20025;-74
2022/10/16 00:30:38;;;;;;;3.88;0.95;;;16.60;96.40;;;;;;5071456;28;20021;-75
2022/10/16 00:33:04;;;;;;;5.35;0.60;;;16.50;96.40;;;;;;5071043;28;20025;-75
2022/10/16 00:35:31;;;;;;;1.33;0.80;;;16.50;96.40;;;;;;5070984;28;20059;-74
2022/10/16 00:37:56;;;;;;;9.95;0.95;;;16.50;96.50;;;;;;5071353;28;20067;-74
2022/10/16 00:40:22;;;;;;;2.15;0.60;;;16.50;96.50;;;;;;5071220;28;20194;-74
2022/10/16 00:42:48;;;;;;;1.45;0.50;;;16.40;96.50;;;;;;5070952;28;20033;-76
2022/10/16 00:45:13;;;;;;;1.38;0.60;;;16.40;96.50;;;;;;5070952;28;20362;-75
2022/10/16 00:47:48;;;;;;;3.53;0.95;;;16.40;96.50;;;;;;5069777;28;20355;-75
2022/10/16 00:50:34;;;;;;;4.82;0.60;;;16.30;96.50;;;;;;5071229;28;20100;-75
2022/10/16 00:53:01;;;;;;;3.90;0.60;;;16.40;96.50;;;;;;5070975;28;20101;-75
2022/10/16 00:55:29;;;;;;;1.20;0.73;;;16.40;96.60;;;;;;5071115;28;20025;-76
2022/10/16 00:57:56;;;;;;;2.75;0.43;;;16.40;96.60;;;;;;5070890;28;20327;-74
2022/10/16 01:00:24;;;;;;;2.97;0.80;;;16.30;96.60;;;;;;5069703;28;20423;-74
2022/10/16 01:02:59;;;;;;;1.02;0.73;;;16.40;96.70;;;;;;5069722;28;20044;-75
2022/10/16 01:05:51;;;;;;;4.25;0.82;;;16.30;96.90;;;;;;5069663;28;20021;-73
2022/10/16 01:08:43;;;;;;;3.42;1.00;;;16.30;97.10;;;;;;5070852;28;20024;-75
2022/10/16 01:11:40;;;;;;;4.00;0.95;;;16.40;97.30;;;;;;5070516;28;20036;-74
2022/10/16 01:14:14;;;;;;;4.10;0.82;;;16.40;97.30;;;;;;5069488;28;20571;-74
2022/10/16 01:16:57;;;;;;;3.05;1.20;;;16.40;97.50;;;;;;5070474;28;20467;-74
2022/10/16 01:19:55;;;;;;;2.28;1.02;;;16.40;97.60;;;;;;5070345;28;20467;-75
2022/10/16 01:22:24;;;;;;;1.00;0.73;;;16.50;97.70;;;;;;5069422;28;20032;-75
2022/10/16 01:24:52;;;;;;;3.17;1.08;;;16.50;97.80;;;;;;5070380;28;20036;-74
2022/10/16 01:27:28;;;;;;;7.88;1.08;;;16.50;97.90;;;;;;5070157;28;20033;-75
2022/10/16 01:30:25;;;;;;;2.35;1.00;;;16.40;98.00;;;;;;5070257;28;20476;-75
2022/10/16 01:33:06;;;;;;;2.78;1.20;;;16.40;98.20;;;;;;5069570;28;20493;-75
2022/10/16 01:35:45;;;;;;;3.67;0.95;;;16.40;98.30;;;;;;5070208;28;20116;-75
2022/10/16 01:38:28;;;;;;;1.90;1.10;;;16.40;98.50;;;;;;5070845;28;20032;-74
2022/10/16 01:41:00;;;;;;;13.38;1.52;;;16.40;98.50;;;;;;5070299;28;20071;-75
2022/10/16 01:43:35;;;;;;;3.40;1.23;;;16.40;98.40;;;;;;5070334;28;20051;-74
2022/10/16 01:46:01;;;;;;;2.90;1.33;;;16.40;98.40;;;;;;5069196;28;20029;-75
2022/10/16 01:48:29;;;;;;;5.97;1.58;;;16.40;98.50;;;;;;5068921;28;20097;-75
2022/10/16 01:51:04;;;;;;;5.43;1.63;;;16.40;98.50;;;;;;5069123;28;20093;-75
2022/10/16 01:53:31;;;;;;;3.10;1.42;;;16.40;98.60;;;;;;5070142;28;20056;-75
2022/10/16 01:55:59;;;;;;;3.78;1.75;;;16.40;98.60;;;;;;5070691;28;20105;-75
2022/10/16 01:58:27;;;;;;;6.82;2.08;;;16.50;98.80;;;;;;5070191;28;20033;-74
2022/10/16 02:00:54;;;;;;;4.13;1.70;;;16.40;98.90;;;;;;5070311;28;20426;-75
2022/10/16 02:03:21;;;;;;;7.20;1.50;;;16.40;98.80;;;;;;5070505;28;20029;-75
2022/10/16 02:05:50;;;;;;;6.85;1.85;;;16.40;98.70;;;;;;5070373;28;20093;-75
2022/10/16 02:08:16;;;;;;;4.05;1.60;;;16.40;99.00;;;;;;5069480;28;20025;-75
2022/10/16 02:10:42;;;;;;;2.75;1.63;;;16.30;99.10;;;;;;5069294;28;20032;-76
2022/10/16 02:13:10;;;;;;;3.72;1.58;;;16.40;99.10;;;;;;5069952;28;20051;-75
2022/10/16 02:15:36;;;;;;;7.45;1.30;;;16.40;99.00;;;;;;5070372;28;20039;-75
2022/10/16 02:18:05;;;;;;;7.30;1.40;;;16.40;99.00;;;;;;5071754;28;20045;-75
2022/10/16 02:20:36;;;;;;;5.32;1.20;;;16.40;98.90;;;;;;5073871;28;20113;-75
2022/10/16 02:23:03;;;;;;;2.22;1.50;;;16.30;99.20;;;;;;5074376;28;20020;-75
2022/10/16 02:25:34;;;;;;;5.20;1.15;;;16.30;99.10;;;;;;5073956;28;20485;-75
2022/10/16 02:28:39;;;;;;;1.52;0.90;;;16.30;99.20;;;;;;5073633;28;20528;-74
2022/10/16 02:31:11;;;;;;;6.32;1.00;;;16.30;99.20;;;;;;5042916;28;20442;-75
2022/10/16 02:33:40;;;;;;;5.15;1.50;;;16.30;99.00;;;;;;5073668;28;20053;-74
2022/10/16 02:36:07;;;;;;;4.32;1.33;;;16.20;99.10;;;;;;5073697;28;20028;-74
2022/10/16 02:38:34;;;;;;;5.97;1.30;;;16.20;99.20;;;;;;5073690;28;20029;-74
2022/10/16 02:41:00;;;;;;;8.10;1.10;;;16.20;99.20;;;;;;5074155;28;20084;-74
2022/10/16 02:43:26;;;;;;;6.20;0.88;;;16.20;99.30;;;;;;5073679;28;20045;-75
2022/10/16 02:45:52;;;;;;;5.07;1.15;;;16.20;99.60;;;;;;5073559;28;20028;-74
2022/10/16 02:48:17;;;;;;;8.00;1.25;;;16.10;99.60;;;;;;5073632;28;20363;-75
2022/10/16 02:50:43;;;;;;;7.45;0.85;;;16.10;99.70;;;;;;5073596;28;20071;-75
2022/10/16 02:53:09;;;;;;;7.50;0.98;;;16.00;99.90;;;;;;5073081;28;20038;-74
2022/10/16 02:55:34;;;;;;;2.78;1.05;;;16.00;99.90;;;;;;5073655;28;20437;-75
2022/10/16 02:58:00;;;;;;;6.55;0.85;;;15.90;99.80;;;;;;5073339;28;20047;-74
2022/10/16 03:00:26;;;;;;;4.32;1.10;;;16.00;99.90;;;;;;5073346;28;20024;-74
2022/10/16 03:02:52;;;;;;;1.33;0.93;;;15.90;99.70;;;;;;5072973;28;20025;-73
2022/10/16 03:05:17;;;;;;;4.13;0.93;;;15.90;99.80;;;;;;5073211;28;20021;-74
2022/10/16 03:07:43;;;;;;;2.00;1.13;;;15.90;99.90;;;;;;5072813;28;20438;-74
2022/10/16 03:10:09;;;;;;;11.50;1.42;;;15.90;99.90;;;;;;5071630;28;20095;-74
2022/10/16 03:12:35;;;;;;;5.95;1.15;;;15.90;99.90;;;;;;5071550;28;20041;-74
2022/10/16 03:15:01;;;;;;;2.15;1.10;;;15.80;99.90;;;;;;5072597;28;20029;-73
2022/10/16 03:17:26;;;;;;;3.75;1.10;;;15.80;99.90;;;;;;5072552;28;20020;-74
2022/10/16 03:19:52;;;;;;;9.23;1.90;;;15.80;99.90;;;;;;5072867;28;20060;-74
2022/10/16 03:22:18;;;;;;;4.47;1.38;;;15.80;99.90;;;;;;5071259;28;20036;-74
2022/10/16 03:24:44;;;;;;;6.75;1.35;;;15.80;99.90;;;;;;5072516;28;20040;-73
2022/10/16 03:27:10;;;;;;;3.45;1.20;;;15.80;99.90;;;;;;5071289;28;20029;-75
2022/10/16 03:29:35;;;;;;;2.45;1.10;;;15.80;99.90;;;;;;5071953;28;20024;-75
2022/10/16 03:32:01;;;;;;;14.30;1.95;;;15.70;99.90;;;;;;5072971;28;20041;-75
2022/10/16 03:34:27;;;;;;;10.23;1.15;;;15.70;99.90;;;;;;5072640;28;20036;-75
2022/10/16 03:36:53;;;;;;;8.40;1.20;;;15.70;99.90;;;;;;5072696;28;20032;-75
2022/10/16 03:39:19;;;;;;;8.40;1.60;;;15.70;99.90;;;;;;5072647;28;20058;-75
2022/10/16 03:41:46;;;;;;;15.63;1.50;;;15.60;99.90;;;;;;5072293;28;20437;-75
2022/10/16 03:44:12;;;;;;;7.38;1.05;;;15.60;99.90;;;;;;5072811;28;20031;-73
2022/10/16 03:46:38;;;;;;;13.10;1.00;;;15.50;99.90;;;;;;5072531;28;20116;-75
2022/10/16 03:49:03;;;;;;;8.75;1.33;;;15.50;99.90;;;;;;5072365;28;20119;-75
2022/10/16 03:51:29;;;;;;;8.57;1.73;;;15.50;99.90;;;;;;5072393;28;20029;-75
2022/10/16 03:53:55;;;;;;;3.80;1.00;;;15.40;99.90;;;;;;5072179;28;20039;-76
2022/10/16 03:56:20;;;;;;;7.85;0.80;;;15.40;99.90;;;;;;5072839;28;20523;-75
2022/10/16 03:58:46;;;;;;;4.07;1.25;;;15.30;99.90;;;;;;5071846;28;20029;-76
2022/10/16 04:01:12;;;;;;;3.65;1.17;;;15.30;99.90;;;;;;5071830;28;20025;-75
2022/10/16 04:03:38;;;;;;;1.95;0.93;;;15.30;99.90;;;;;;5071810;28;20033;-75
2022/10/16 04:06:04;;;;;;;3.28;1.08;;;15.30;99.90;;;;;;5070752;28;20032;-76
2022/10/16 04:08:29;;;;;;;2.15;1.17;;;15.30;99.90;;;;;;5071801;28;20107;-75
2022/10/16 04:10:55;;;;;;;5.10;1.10;;;15.30;99.90;;;;;;5072666;28;20105;-77
2022/10/16 04:13:21;;;;;;;8.25;1.20;;;15.30;99.90;;;;;;5071458;28;20044;-75
2022/10/16 04:15:47;;;;;;;5.93;1.00;;;15.30;99.90;;;;;;5070570;28;20039;-75
2022/10/16 04:18:13;;;;;;;2.72;1.20;;;15.20;99.90;;;;;;5071971;28;20387;-75
2022/10/16 04:20:38;;;;;;;9.90;1.63;;;15.30;99.90;;;;;;5072006;28;20086;-75
2022/10/16 04:23:04;;;;;;;11.77;1.52;;;15.20;99.90;;;;;;5071363;28;20078;-75
2022/10/16 04:25:30;;;;;;;3.67;1.13;;;15.20;99.90;;;;;;5071515;28;20103;-76
2022/10/16 04:27:56;;;;;;;6.15;1.25;;;15.20;99.90;;;;;;5070756;28;20090;-76
2022/10/16 04:30:22;;;;;;;5.03;1.00;;;15.20;99.90;;;;;;5070750;28;20036;-75
2022/10/16 04:32:52;;;;;;;10.63;1.10;;;15.20;99.90;;;;;;5071686;28;20114;-75
2022/10/16 04:35:19;;;;;;;16.65;1.10;;;15.10;99.90;;;;;;5072073;28;20028;-76
2022/10/16 04:37:45;;;;;;;3.00;1.10;;;15.10;99.90;;;;;;5070718;28;20044;-74
2022/10/16 04:40:11;;;;;;;4.13;1.33;;;15.10;99.90;;;;;;5070421;28;20365;-75
2022/10/16 04:42:37;;;;;;;6.70;1.50;;;15.10;99.90;;;;;;5070545;28;20025;-75
2022/10/16 04:45:05;;;;;;;4.65;1.30;;;15.20;99.90;;;;;;5070344;28;20056;-76
2022/10/16 04:47:30;;;;;;;3.35;1.85;;;15.10;99.90;;;;;;5069862;28;20029;-75
2022/10/16 04:49:56;;;;;;;4.00;1.30;;;15.10;99.90;;;;;;5071383;28;20031;-75
2022/10/16 04:52:24;;;;;;;5.82;1.50;;;15.20;99.90;;;;;;5070914;28;20100;-75
2022/10/16 04:54:50;;;;;;;9.75;1.90;;;15.20;99.90;;;;;;5070860;28;20037;-75
2022/10/16 04:57:17;;;;;;;3.05;1.42;;;15.20;99.90;;;;;;5071202;28;20119;-75
2022/10/16 04:59:42;;;;;;;5.68;1.80;;;15.20;99.90;;;;;;5071273;28;20020;-75
2022/10/16 05:02:08;;;;;;;7.47;1.58;;;15.20;99.90;;;;;;5071647;28;20451;-75
2022/10/16 05:04:34;;;;;;;6.18;1.55;;;15.20;99.90;;;;;;5071045;28;20029;-75
2022/10/16 05:07:00;;;;;;;7.28;1.75;;;15.20;99.90;;;;;;5069987;28;20485;-75
2022/10/16 05:09:25;;;;;;;2.25;1.45;;;15.20;99.90;;;;;;5069751;28;20056;-74
2022/10/16 05:11:51;;;;;;;6.60;1.52;;;15.20;99.90;;;;;;5070525;28;20060;-74
2022/10/16 05:14:17;;;;;;;4.25;1.75;;;15.30;99.90;;;;;;5071071;28;20099;-74
2022/10/16 05:16:43;;;;;;;3.95;1.50;;;15.20;99.90;;;;;;5070252;28;20040;-75
2022/10/16 05:19:09;;;;;;;4.03;1.50;;;15.30;99.90;;;;;;5069344;28;20036;-75
2022/10/16 05:21:34;;;;;;;3.47;1.63;;;15.20;99.90;;;;;;5070746;28;20056;-75
2022/10/16 05:24:00;;;;;;;6.72;2.03;;;15.30;99.90;;;;;;5070937;28;20044;-74
2022/10/16 05:26:26;;;;;;;2.67;1.55;;;15.30;99.90;;;;;;5070090;28;20095;-74
2022/10/16 05:28:51;;;;;;;3.33;1.48;;;15.30;99.90;;;;;;5070406;28;20020;-73
2022/10/16 05:31:17;;;;;;;2.90;1.40;;;15.30;99.90;;;;;;5070985;28;20036;-74
2022/10/16 05:33:43;;;;;;;1.98;1.10;;;15.30;99.90;;;;;;5070474;28;20028;-75
2022/10/16 05:36:10;;;;;;;4.32;1.50;;;15.30;99.90;;;;;;5069541;28;20108;-75
2022/10/16 05:38:37;;;;;;;3.00;1.80;;;15.30;99.90;;;;;;5070414;28;20021;-75
2022/10/16 05:41:05;;;;;;;5.32;1.75;;;15.30;99.90;;;;;;5071289;28;20033;-76
2022/10/16 05:43:32;;;;;;;3.30;1.58;;;15.30;99.90;;;;;;5070292;28;20412;-76
2022/10/16 05:46:05;;;;;;;4.22;1.90;;;15.30;99.90;;;;;;5070264;28;20025;-76
2022/10/16 05:48:32;;;;;;;3.50;1.42;;;15.30;99.90;;;;;;5070295;28;20518;-75
2022/10/16 05:51:09;;;;;;;3.60;1.50;;;15.40;99.90;;;;;;5070128;28;20039;-75
2022/10/16 05:53:36;;;;;;;5.13;2.00;;;15.30;99.90;;;;;;5072481;28;20025;-76
2022/10/16 05:56:03;;;;;;;2.60;1.83;;;15.30;99.90;;;;;;5074820;28;20016;-74
2022/10/16 05:58:32;;;;;;;5.78;1.92;;;15.30;99.90;;;;;;5073135;28;20032;-76
2022/10/16 06:01:07;;;;;;;4.22;1.60;;;15.30;99.90;;;;;;5074304;28;20024;-75
2022/10/16 06:03:33;;;;;;;2.72;1.75;;;15.30;99.90;;;;;;5074520;28;20111;-76
2022/10/16 06:06:06;;;;;;;5.15;1.88;;;15.30;99.90;;;;;;5073265;28;20086;-74
2022/10/16 06:08:32;;;;;;;4.97;1.52;;;15.30;99.90;;;;;;5072751;28;20116;-75
2022/10/16 06:11:09;;;;;;;4.82;1.40;;;15.40;99.90;;;;;;5074553;28;20090;-74
2022/10/16 06:13:35;;;;;;;2.53;1.60;;;15.30;99.90;;;;;;5074216;28;20122;-77
2022/10/16 06:16:02;;;;;;;3.85;2.10;;;15.40;99.90;;;;;;5072602;28;20423;-75
2022/10/16 06:18:29;;;;;;;6.65;1.50;;;15.40;99.90;;;;;;5073590;28;20304;-76
2022/10/16 06:20:55;;;;;;;4.30;1.50;;;15.30;99.90;;;;;;5074087;28;20446;-76
2022/10/16 06:23:21;;;;;;;2.35;1.30;;;15.30;99.90;;;;;;5074557;28;20017;-77
2022/10/16 06:25:47;;;;;;;7.63;1.40;;;15.40;99.90;;;;;;5074151;28;20028;-76
2022/10/16 06:28:16;;;;;;;2.88;1.20;;;15.40;99.90;;;;;;5073225;28;20044;-78
2022/10/16 06:30:45;;;;;;;1.10;1.00;;;15.40;99.90;;;;;;5074067;28;20033;-73
2022/10/16 06:33:12;;;;;;;2.50;1.02;;;15.40;99.90;;;;;;5073465;28;20029;-73
2022/10/16 06:35:37;;;;;;;4.90;1.10;;;15.50;99.90;;;;;;5073715;28;20056;-76
2022/10/16 06:38:03;;;;;;;6.18;1.17;;;15.50;99.90;;;;;;5073357;28;20427;-76
2022/10/16 06:40:29;;;;;;;5.68;2.35;;;15.50;99.90;;;;;;5072586;28;20024;-80
2022/10/16 06:42:55;;;;;;;7.53;1.88;;;15.60;99.90;;;;;;5074322;28;20093;-79
2022/10/16 06:45:21;;;;;;;4.28;1.88;;;15.60;99.90;;;;;;5073107;28;20024;-78
2022/10/16 06:47:46;;;;;;;3.58;1.50;;;15.60;99.90;;;;;;5072882;28;20170;-78
2022/10/16 06:50:12;;;;;;;5.90;1.23;;;15.60;99.90;;;;;;5073450;28;20032;-79
2022/10/16 06:52:38;;;;;;;5.30;1.45;;;15.70;99.90;;;;;;5056707;28;20116;-77
2022/10/16 06:55:04;;;;;;;2.78;1.98;;;15.70;99.90;;;;;;5053388;28;20106;-79
2022/10/16 06:57:30;;;;;;;9.77;1.92;;;15.70;99.90;;;;;;5069005;28;20032;-78
2022/10/16 06:59:55;;;;;;;3.30;1.45;;;15.80;99.90;;;;;;5053172;28;20029;-77
2022/10/16 07:02:21;;;;;;;5.63;2.25;;;15.80;99.90;;;;;;5070116;28;20040;-77
2022/10/16 07:04:47;;;;;;;4.63;2.05;;;15.80;99.90;;;;;;5052134;28;20091;-80
2022/10/16 07:07:13;;;;;;;3.83;1.92;;;15.80;99.90;;;;;;5052690;28;20060;-81
2022/10/16 07:09:39;;;;;;;1.83;1.30;;;15.80;99.90;;;;;;5053491;28;20062;-81
2022/10/16 07:12:05;;;;;;;3.08;1.40;;;15.90;99.90;;;;;;5052816;28;20043;-78
2022/10/16 07:14:31;;;;;;;1.85;1.17;;;15.90;99.90;;;;;;5052681;28;20047;-77
2022/10/16 07:16:56;;;;;;;1.73;0.90;;;15.90;99.90;;;;;;5053291;28;20104;-77
2022/10/16 07:19:22;;;;;;;2.25;1.13;;;16.00;99.90;;;;;;5051667;28;20455;-77
2022/10/16 07:21:48;;;;;;;3.63;1.23;;;16.00;99.90;;;;;;5052675;28;20059;-76
2022/10/16 07:24:16;;;;;;;2.45;0.90;;;16.10;99.90;;;;;;5052713;28;20095;-74
2022/10/16 07:26:43;;;;;;;3.40;1.35;;;16.10;99.90;;;;;;5052734;28;20103;-77
2022/10/16 07:29:16;;;;;;;1.10;0.68;;;16.10;99.90;;;;;;5052885;28;20385;-79
2022/10/16 07:31:44;;;;;;;0.70;0.70;;;16.20;99.90;;;;;;5068234;28;20467;-77
2022/10/16 07:34:11;;;;;;;4.18;1.52;;;16.10;99.90;;;;;;5052134;28;20120;-78
2022/10/16 07:36:36;;;;;;;7.13;2.38;;;16.20;99.90;;;;;;5052637;28;20044;-77
2022/10/16 07:39:03;;;;;;;2.80;1.00;;;16.20;99.90;;;;;;5052473;28;20029;-77
2022/10/16 07:41:28;;;;;;;6.22;1.25;;;16.20;99.90;;;;;;5052502;28;20060;-77
2022/10/16 07:43:57;;;;;;;7.25;2.90;;;16.30;99.90;;;;;;5068555;28;20459;-76
2022/10/16 07:46:23;;;;;;;10.07;1.92;;;16.30;99.90;;;;;;5068032;28;20037;-78
2022/10/16 07:48:49;;;;;;;3.42;1.00;;;16.40;99.90;;;;;;5067838;28;20066;-76
2022/10/16 07:51:17;;;;;;;1.50;0.93;;;16.50;99.90;;;;;;5052027;28;20029;-75
2022/10/16 07:53:43;;;;;;;2.28;1.02;;;16.50;99.90;;;;;;5052077;28;20455;-77
2022/10/16 07:56:09;;;;;;;1.40;0.90;;;16.60;99.90;;;;;;5068307;28;20032;-78
2022/10/16 07:58:37;;;;;;;1.45;0.80;;;16.60;99.90;;;;;;5052369;28;20036;-78
2022/10/16 08:01:08;;;;;;;2.63;0.80;;;16.70;99.90;;;;;;5052037;28;20474;-77
2022/10/16 08:03:34;;;;;;;3.80;1.00;;;16.80;99.90;;;;;;5051771;28;20045;-75
2022/10/16 08:06:00;;;;;;;1.25;0.70;;;16.80;99.90;;;;;;5051588;28;20465;-74
2022/10/16 08:08:26;;;;;;;2.17;1.00;;;16.90;99.90;;;;;;5051694;28;20094;-73
2022/10/16 08:10:52;;;;;;;2.03;0.60;;;17.00;99.90;;;;;;5052136;28;20024;-74
2022/10/16 08:13:18;;;;;;;3.15;0.80;;;17.10;99.90;;;;;;5066791;28;20052;-74
2022/10/16 08:15:45;;;;;;;1.23;0.70;;;17.20;99.90;;;;;;5051508;28;20087;-74
2022/10/16 08:18:12;;;;;;;0.75;0.60;;;17.30;99.90;;;;;;5051678;28;20363;-76
2022/10/16 08:20:39;;;;;;;0.60;0.60;;;17.40;99.70;;;;;;5051548;28;20028;-75
2022/10/16 08:23:05;;;;;;;1.05;0.60;;;17.40;99.50;;;;;;5050917;28;20021;-75
2022/10/16 08:25:31;;;;;;;5.30;0.77;;;17.50;99.70;;;;;;5050348;28;20048;-75
2022/10/16 08:27:57;;;;;;;4.03;2.40;;;17.60;99.90;;;;;;5051393;28;20025;-76
2022/10/16 08:30:23;;;;;;;5.07;2.92;;;17.70;99.50;;;;;;5051202;28;20108;-76
2022/10/16 08:32:49;;;;;;;1.00;0.70;;;17.70;99.30;;;;;;5050967;28;20040;-75
2022/10/16 08:35:15;;;;;;;2.22;0.95;;;17.80;99.10;;;;;;5051787;28;20337;-75
2022/10/16 08:37:41;;;;;;;1.00;0.60;;;17.90;99.20;;;;;;5051060;28;20044;-74
2022/10/16 08:40:23;;;;;;;2.03;1.00;;;18.00;99.00;;;;;;5050863;28;20059;-79
2022/10/16 08:42:57;;;;;;;1.42;0.57;;;18.20;98.70;;;;;;5050769;28;20041;-77
2022/10/16 08:45:33;;;;;;;3.28;0.70;;;18.30;98.60;;;;;;5050557;28;20041;-77
2022/10/16 08:48:19;;;;;;;0.75;0.65;;;18.60;98.80;;;;;;5050710;28;20067;-77
2022/10/16 08:50:47;;;;;;;1.15;0.77;;;18.80;98.40;;;;;;5050796;28;20029;-76
2022/10/16 08:53:42;;;;;;;5.50;0.80;;;19.30;98.40;;;;;;5051295;28;20029;-76
2022/10/16 08:56:08;;;;;;;4.75;0.80;;;19.60;97.90;;;;;;5051400;28;20033;-76
2022/10/16 08:58:34;;;;;;;2.22;0.40;;;20.00;97.30;;;;;;5050573;28;20060;-75
2022/10/16 09:01:03;;;;;;;0.95;0.70;;;20.30;97.10;;;;;;5050403;28;20040;-76
2022/10/16 09:04:02;;;;;;;3.83;1.42;;;20.40;96.40;;;;;;5066048;28;20037;-75
2022/10/16 09:06:39;;;;;;;1.67;0.93;;;20.70;96.70;;;;;;5050731;28;20482;-75
2022/10/16 09:09:11;;;;;;;6.45;0.98;;;21.10;95.90;;;;;;5050555;28;20033;-74
2022/10/16 09:12:00;;;;;;;1.85;1.17;;;21.20;95.10;;;;;;5050538;28;20045;-75
2022/10/16 09:14:36;;;;;;;1.63;0.80;;;21.70;94.70;;;;;;5050402;28;20033;-74
2022/10/16 09:17:26;;;;;;;0.63;0.60;;;22.60;93.20;;;;;;5050872;28;20023;-75
2022/10/16 09:20:27;;;;;;;4.75;1.42;;;23.70;93.10;;;;;;5050692;28;20029;-76
2022/10/16 09:23:26;;;;;;;4.10;0.95;;;24.60;90.30;;;;;;5026407;28;20102;-76
2022/10/16 09:25:54;;;;;;;3.08;0.45;;;25.60;87.80;;;;;;5050580;28;20047;-76
2022/10/16 09:28:19;;;;;;;3.67;0.82;;;26.10;88.40;;;;;;5049973;28;20143;-77
2022/10/16 09:30:48;;;;;;;1.20;0.40;;;26.90;85.50;;;;;;5050183;28;20523;-78
2022/10/16 09:33:15;;;;;;;3.95;0.50;;;26.30;80.50;;;;;;5050482;28;20106;-74
2022/10/16 09:36:02;;;;;;;2.70;0.50;;;27.10;82.10;;;;;;5065795;28;20035;-76
2022/10/16 09:38:30;;;;;;;1.15;0.70;;;27.60;79.50;;;;;;5050278;28;20033;-77
2022/10/16 09:40:58;;;;;;;2.38;0.50;;;27.90;75.10;;;;;;5050741;28;20350;-75
2022/10/16 09:43:30;;;;;;;;;;;27.60;78.40;;;;;;5051157;28;20048;-75
2022/10/16 09:46:24;;;;;;;4.70;0.57;;;28.80;75.90;;;;;;5050294;28;19919;-76
2022/10/16 09:48:53;;;;;;;3.53;0.77;;;29.40;73.80;;;;;;5044336;28;20423;-77
2022/10/16 09:51:30;;;;;;;6.95;0.73;;;29.40;70.20;;;;;;5050612;28;20037;-76
2022/10/16 09:54:09;;;;;;;2.45;0.57;;;29.30;68.40;;;;;;5050337;28;20380;-76
2022/10/16 09:56:38;;;;;;;2.03;0.40;;;29.40;71.20;;;;;;5050347;28;20100;-75
2022/10/16 09:59:10;;;;;;;1.05;0.60;;;29.60;68.40;;;;;;5050458;28;20037;-75
2022/10/16 10:01:38;;;;;;;2.58;0.52;;;30.50;67.30;;;;;;5065725;28;20112;-76
2022/10/16 10:04:04;;;;;;;1.27;0.57;;;30.90;64.50;;;;;;5050009;28;20112;-76
2022/10/16 10:06:57;;;;;;;3.40;0.57;;;31.10;66.40;;;;;;5050106;28;20029;-77
2022/10/16 10:09:38;;;;;;;4.78;0.80;;;31.70;65.40;;;;;;5047718;28;20030;-76
2022/10/16 10:12:16;;;;;;;5.07;0.82;;;28.80;62.20;;;;;;5049863;28;20056;-75
2022/10/16 10:14:47;;;;;;;6.32;0.88;;;29.50;64.20;;;;;;5065665;28;20021;-76
2022/10/16 10:17:24;;;;;;;0.63;0.47;;;28.60;61.20;;;;;;5051205;28;20024;-78
2022/10/16 10:19:56;;;;;;;1.67;0.52;;;29.50;65.80;;;;;;5065898;28;20037;-78
2022/10/16 10:22:44;;;;;;;1.00;0.55;;;29.80;60.10;;;;;;5050178;28;20470;-78
2022/10/16 10:25:12;;;;;;;;;;;28.60;62.10;;;;;;5050299;28;20092;-76
2022/10/16 10:28:08;;;;;;;3.20;0.63;;;28.30;63.20;;;;;;5050305;28;19909;-75
2022/10/16 10:30:49;;;;;;;2.47;0.75;;;28.10;62.00;;;;;;5050063;28;20047;-74
2022/10/16 10:33:38;;;;;;;1.73;0.73;;;27.80;62.50;;;;;;5049984;28;20029;-75
2022/10/16 10:36:09;;;;;;;2.17;0.68;;;28.90;62.30;;;;;;5066301;28;20047;-80
2022/10/16 10:38:52;;;;;;;1.35;0.65;;;29.20;63.00;;;;;;5050771;28;20535;-76
2022/10/16 10:41:30;;;;;;;1.25;0.60;;;29.40;61.90;;;;;;5054463;28;20045;-76
2022/10/16 10:44:01;;;;;;;2.63;0.80;;;29.40;61.40;;;;;;5053639;28;20040;-75
2022/10/16 10:46:48;;;;;;;2.25;0.70;;;29.30;60.70;;;;;;5053590;28;20025;-76
2022/10/16 10:49:39;;;;;;;4.00;0.55;;;28.80;59.60;;;;;;5053518;28;20048;-77
2022/10/16 10:52:34;;;;;;;2.13;0.60;;;26.80;63.80;;;;;;5053239;28;20052;-76
2022/10/16 10:55:31;;;;;;;6.22;0.90;;;27.30;63.30;;;;;;5068674;28;20109;-75
2022/10/16 10:58:06;;;;;;;4.30;0.50;;;27.00;65.90;;;;;;5053476;28;20029;-76
2022/10/16 11:00:46;;;;;;;4.93;0.68;;;27.70;62.70;;;;;;5052909;28;20484;-74
2022/10/16 11:03:32;;;;;;;2.78;0.73;;;28.70;62.30;;;;;;5053013;28;20056;-76
2022/10/16 11:06:17;;;;;;;0.82;0.52;;;29.30;60.80;;;;;;5053134;28;20021;-78
2022/10/16 11:08:58;;;;;;;2.35;0.60;;;29.50;61.40;;;;;;5053066;28;20028;-78
2022/10/16 11:11:32;;;;;;;1.15;0.75;;;29.90;57.50;;;;;;5069020;28;20044;-75
2022/10/16 11:14:05;;;;;;;5.45;0.80;;;29.20;58.60;;;;;;5063942;28;20047;-76
2022/10/16 11:16:36;;;;;;;1.58;1.05;;;28.80;58.30;;;;;;5073423;28;20358;-77
2022/10/16 11:19:12;;;;;;;1.10;0.60;;;29.60;58.40;;;;;;5072990;28;20037;-75
2022/10/16 11:21:57;;;;;;;2.08;0.70;;;29.40;59.00;;;;;;5073526;28;20109;-77
2022/10/16 11:24:35;;;;;;;1.80;0.55;;;30.10;57.20;;;;;;5073172;28;20024;-77
2022/10/16 11:27:07;;;;;;;4.90;0.60;;;30.00;57.70;;;;;;5072208;28;20031;-76
2022/10/16 11:29:41;;;;;;;2.22;0.60;;;29.60;58.00;;;;;;5072978;28;20190;-76
2022/10/16 11:32:50;;;;;;;3.50;0.52;;;29.10;57.70;;;;;;5073383;28;20025;-77
2022/10/16 11:35:24;;;;;;;2.53;0.82;;;28.60;58.50;;;;;;5071942;28;20045;-77
2022/10/16 11:37:53;;;;;;;2.00;0.73;;;27.70;59.30;;;;;;5072668;28;20029;-78
2022/10/16 11:40:27;;;;;;;1.77;0.77;;;26.30;61.70;;;;;;5072739;28;20043;-77
2022/10/16 11:43:10;;;;;;;1.40;0.80;;;25.20;64.00;;;;;;5072222;28;20089;-76
2022/10/16 11:45:57;;;;;;;1.83;0.80;;;24.20;66.20;;;;;;5072598;28;20032;-78
2022/10/16 11:48:46;;;;;;;2.72;1.00;;;24.40;67.60;;;;;;5071325;28;20032;-78
2022/10/16 11:51:31;;;;;;;1.50;0.60;;;24.30;68.40;;;;;;5072234;28;20103;-78
2022/10/16 11:54:27;;;;;;;4.03;0.70;;;24.40;68.40;;;;;;5072871;28;20028;-76
2022/10/16 11:57:09;;;;;;;3.55;0.80;;;24.20;69.30;;;;;;5072182;28;20033;-76
2022/10/16 11:59:58;;;;;;;3.30;0.60;;;23.80;70.30;;;;;;5071265;28;20036;-77
2022/10/16 12:02:54;;;;;;;2.95;0.57;;;23.20;71.30;;;;;;5072567;28;20033;-75
2022/10/16 12:05:49;;;;;;;0.98;0.60;;;23.20;72.40;;;;;;5070896;28;20138;-74
2022/10/16 12:08:16;;;;;;;3.03;0.90;;;23.20;72.20;;;;;;5071763;28;20086;-76
2022/10/16 12:10:46;;;;;;;2.95;0.63;;;23.10;72.40;;;;;;5059862;28;20581;-74
2022/10/16 12:13:39;;;;;;;3.60;1.00;;;23.20;72.80;;;;;;5051743;28;20048;-75
2022/10/16 12:16:24;;;;;;;4.68;1.00;;;23.30;72.20;;;;;;5051462;28;20486;-75
2022/10/16 12:19:23;;;;;;;1.52;0.75;;;23.00;72.70;;;;;;5051484;28;20033;-75
2022/10/16 12:21:51;;;;;;;1.55;0.60;;;22.90;73.10;;;;;;5051035;28;20735;-74
2022/10/16 12:24:35;;;;;;;;;;;22.60;72.80;;;;;;5052256;28;20447;-75
2022/10/16 12:27:02;;;;;;;2.58;0.60;;;22.40;73.90;;;;;;5051704;28;19940;-73
2022/10/16 12:29:43;;;;;;;3.20;0.77;;;22.00;74.30;;;;;;5052224;28;20032;-76
2022/10/16 12:32:39;;;;;;;5.68;0.65;;;21.90;74.70;;;;;;5052536;28;20055;-74
2022/10/16 12:35:17;;;;;;;2.05;0.60;;;21.80;75.10;;;;;;5039017;28;20470;-75
2022/10/16 12:37:44;;;;;;;2.00;0.60;;;22.10;74.60;;;;;;5051131;28;20033;-76
2022/10/16 12:40:25;;;;;;;1.03;0.70;;;22.00;73.80;;;;;;5051235;28;20051;-75
2022/10/16 12:42:51;;;;;;;5.20;0.55;;;22.20;74.20;;;;;;5051232;28;20037;-77
2022/10/16 12:45:25;;;;;;;10.38;1.85;;;22.10;74.40;;;;;;5066705;28;20032;-75
2022/10/16 12:47:53;;;;;;;2.47;0.60;;;22.30;74.80;;;;;;5051117;28;20532;-76
2022/10/16 12:50:37;;;;;;;0.77;0.30;;;22.50;74.30;;;;;;5051267;28;20040;-75
2022/10/16 12:53:17;;;;;;;1.65;0.63;;;22.50;74.00;;;;;;5051088;28;20517;-75
2022/10/16 12:55:52;;;;;;;2.15;0.60;;;22.30;74.00;;;;;;5050960;28;20478;-75
2022/10/16 12:58:27;;;;;;;1.23;0.50;;;22.10;74.20;;;;;;5066503;28;20091;-77
2022/10/16 13:00:52;;;;;;;1.08;0.45;;;22.20;75.20;;;;;;5050952;28;20090;-77
2022/10/16 13:03:40;;;;;;;2.65;0.70;;;22.30;75.80;;;;;;5050219;28;20025;-78
2022/10/16 13:06:24;;;;;;;3.55;0.80;;;22.40;75.90;;;;;;5051350;28;20466;-78
2022/10/16 13:09:27;;;;;;;1.52;0.60;;;22.40;75.30;;;;;;5050780;28;20052;-77
2022/10/16 13:12:14;;;;;;;2.28;0.60;;;22.50;74.10;;;;;;5050582;28;20474;-77